sensor_id;sensor_type;location;lat;lon;timestamp;P1;durP1;ratioP1;P2;durP2;ratioP2
16478;SDS011;8350;52.316;10.530;2023-07-29T00:01:40;6.78;;;6.15;;
16478;SDS011;8350;52.316;10.530;2023-07-29T00:04:07;6.15;;;5.65;;
16478;SDS011;8350;52.316;10.530;2023-07-29T00:06:35;6.53;;;5.93;;
16478;SDS011;8350;52.316;10.530;2023-07-29T00:09:02;6.00;;;5.45;;
16478;SDS011;8350;52.316;10.530;2023-07-29T00:11:29;5.97;;;5.45;;
16478;SDS011;8350;52.316;10.530;2023-07-29T00:13:58;5.57;;;5.07;;
16478;SDS011;8350;52.316;10.530;2023-07-29T00:16:25;5.90;;;5.50;;
16478;SDS011;8350;52.316;10.530;2023-07-29T00:18:55;6.90;;;5.38;;
16478;SDS011;8350;52.316;10.530;2023-07-29T00:21:22;6.07;;;5.53;;
16478;SDS011;8350;52.316;10.530;2023-07-29T00:23:49;5.50;;;4.90;;
16478;SDS011;8350;52.316;10.530;2023-07-29T00:26:16;5.38;;;4.97;;
16478;SDS011;8350;52.316;10.530;2023-07-29T00:28:42;6.53;;;5.45;;
16478;SDS011;8350;52.316;10.530;2023-07-29T00:31:09;5.70;;;5.28;;
16478;SDS011;8350;52.316;10.530;2023-07-29T00:33:36;6.15;;;5.65;;
16478;SDS011;8350;52.316;10.530;2023-07-29T00:36:05;5.20;;;4.80;;
16478;SDS011;8350;52.316;10.530;2023-07-29T00:38:32;5.10;;;4.70;;
16478;SDS011;8350;52.316;10.530;2023-07-29T00:40:59;5.10;;;4.65;;
16478;SDS011;8350;52.316;10.530;2023-07-29T00:43:28;4.85;;;4.45;;
16478;SDS011;8350;52.316;10.530;2023-07-29T00:45:55;4.85;;;4.45;;
16478;SDS011;8350;52.316;10.530;2023-07-29T00:48:23;5.28;;;4.40;;
16478;SDS011;8350;52.316;10.530;2023-07-29T00:50:50;3.95;;;3.65;;
16478;SDS011;8350;52.316;10.530;2023-07-29T00:53:21;5.10;;;4.47;;
16478;SDS011;8350;52.316;10.530;2023-07-29T00:55:50;3.90;;;3.60;;
16478;SDS011;8350;52.316;10.530;2023-07-29T00:58:17;4.07;;;3.67;;
16478;SDS011;8350;52.316;10.530;2023-07-29T01:00:45;5.70;;;3.53;;
16478;SDS011;8350;52.316;10.530;2023-07-29T01:03:13;4.57;;;3.60;;
16478;SDS011;8350;52.316;10.530;2023-07-29T01:05:41;3.42;;;3.13;;
16478;SDS011;8350;52.316;10.530;2023-07-29T01:08:25;3.45;;;3.25;;
16478;SDS011;8350;52.316;10.530;2023-07-29T01:11:03;4.25;;;3.03;;
16478;SDS011;8350;52.316;10.530;2023-07-29T01:13:48;3.10;;;2.90;;
16478;SDS011;8350;52.316;10.530;2023-07-29T01:16:20;2.78;;;2.38;;
16478;SDS011;8350;52.316;10.530;2023-07-29T01:18:52;2.75;;;2.55;;
16478;SDS011;8350;52.316;10.530;2023-07-29T01:21:21;3.08;;;2.40;;
16478;SDS011;8350;52.316;10.530;2023-07-29T01:23:53;2.97;;;2.78;;
16478;SDS011;8350;52.316;10.530;2023-07-29T01:26:25;2.28;;;2.17;;
16478;SDS011;8350;52.316;10.530;2023-07-29T01:28:54;2.63;;;2.42;;
16478;SDS011;8350;52.316;10.530;2023-07-29T01:31:23;2.85;;;2.65;;
16478;SDS011;8350;52.316;10.530;2023-07-29T01:33:58;2.53;;;2.33;;
16478;SDS011;8350;52.316;10.530;2023-07-29T01:36:32;2.60;;;2.40;;
16478;SDS011;8350;52.316;10.530;2023-07-29T01:39:07;2.17;;;1.98;;
16478;SDS011;8350;52.316;10.530;2023-07-29T01:41:36;2.22;;;2.03;;
16478;SDS011;8350;52.316;10.530;2023-07-29T01:44:03;2.35;;;2.15;;
16478;SDS011;8350;52.316;10.530;2023-07-29T01:46:32;4.70;;;2.40;;
16478;SDS011;8350;52.316;10.530;2023-07-29T01:48:59;2.33;;;2.13;;
16478;SDS011;8350;52.316;10.530;2023-07-29T01:51:26;2.78;;;2.50;;
16478;SDS011;8350;52.316;10.530;2023-07-29T01:53:53;2.17;;;2.08;;
16478;SDS011;8350;52.316;10.530;2023-07-29T01:56:22;2.20;;;2.05;;
16478;SDS011;8350;52.316;10.530;2023-07-29T01:58:49;2.10;;;2.00;;
16478;SDS011;8350;52.316;10.530;2023-07-29T02:01:16;2.15;;;2.05;;
16478;SDS011;8350;52.316;10.530;2023-07-29T02:03:43;3.25;;;2.15;;
16478;SDS011;8350;52.316;10.530;2023-07-29T02:06:10;2.08;;;1.98;;
16478;SDS011;8350;52.316;10.530;2023-07-29T02:08:37;2.30;;;2.10;;
16478;SDS011;8350;52.316;10.530;2023-07-29T02:11:05;2.33;;;1.90;;
16478;SDS011;8350;52.316;10.530;2023-07-29T02:13:34;2.60;;;2.40;;
16478;SDS011;8350;52.316;10.530;2023-07-29T02:16:01;1.80;;;1.70;;
16478;SDS011;8350;52.316;10.530;2023-07-29T02:18:31;1.80;;;1.70;;
16478;SDS011;8350;52.316;10.530;2023-07-29T02:20:58;2.15;;;2.05;;
16478;SDS011;8350;52.316;10.530;2023-07-29T02:23:25;2.13;;;2.03;;
16478;SDS011;8350;52.316;10.530;2023-07-29T02:25:52;2.85;;;2.33;;
16478;SDS011;8350;52.316;10.530;2023-07-29T02:28:19;2.58;;;2.38;;
16478;SDS011;8350;52.316;10.530;2023-07-29T02:30:47;2.30;;;2.10;;
16478;SDS011;8350;52.316;10.530;2023-07-29T02:33:40;2.50;;;2.30;;
16478;SDS011;8350;52.316;10.530;2023-07-29T02:36:07;2.40;;;2.20;;
16478;SDS011;8350;52.316;10.530;2023-07-29T02:38:34;2.38;;;2.28;;
16478;SDS011;8350;52.316;10.530;2023-07-29T02:41:01;2.85;;;2.50;;
16478;SDS011;8350;52.316;10.530;2023-07-29T02:43:28;2.70;;;2.50;;
16478;SDS011;8350;52.316;10.530;2023-07-29T02:45:56;2.75;;;2.55;;
16478;SDS011;8350;52.316;10.530;2023-07-29T02:48:24;2.50;;;2.30;;
16478;SDS011;8350;52.316;10.530;2023-07-29T02:50:51;2.50;;;2.30;;
16478;SDS011;8350;52.316;10.530;2023-07-29T02:53:18;2.83;;;2.50;;
16478;SDS011;8350;52.316;10.530;2023-07-29T02:55:45;3.50;;;2.10;;
16478;SDS011;8350;52.316;10.530;2023-07-29T02:58:12;2.90;;;2.28;;
16478;SDS011;8350;52.316;10.530;2023-07-29T03:00:39;2.92;;;2.47;;
16478;SDS011;8350;52.316;10.530;2023-07-29T03:03:08;2.65;;;2.45;;
16478;SDS011;8350;52.316;10.530;2023-07-29T03:05:35;2.92;;;2.40;;
16478;SDS011;8350;52.316;10.530;2023-07-29T03:08:03;2.97;;;2.58;;
16478;SDS011;8350;52.316;10.530;2023-07-29T03:10:30;2.42;;;2.22;;
16478;SDS011;8350;52.316;10.530;2023-07-29T03:12:57;3.20;;;2.65;;
16478;SDS011;8350;52.316;10.530;2023-07-29T03:15:24;2.92;;;2.72;;
16478;SDS011;8350;52.316;10.530;2023-07-29T03:17:51;5.00;;;2.30;;
16478;SDS011;8350;52.316;10.530;2023-07-29T03:20:23;2.70;;;2.50;;
16478;SDS011;8350;52.316;10.530;2023-07-29T03:22:50;4.43;;;2.35;;
16478;SDS011;8350;52.316;10.530;2023-07-29T03:25:17;3.03;;;2.40;;
16478;SDS011;8350;52.316;10.530;2023-07-29T03:27:44;3.78;;;2.40;;
16478;SDS011;8350;52.316;10.530;2023-07-29T03:30:14;2.50;;;2.30;;
16478;SDS011;8350;52.316;10.530;2023-07-29T03:32:42;2.83;;;2.47;;
16478;SDS011;8350;52.316;10.530;2023-07-29T03:35:10;2.47;;;2.28;;
16478;SDS011;8350;52.316;10.530;2023-07-29T03:37:40;2.88;;;2.33;;
16478;SDS011;8350;52.316;10.530;2023-07-29T03:40:08;3.78;;;2.28;;
16478;SDS011;8350;52.316;10.530;2023-07-29T03:42:35;2.60;;;2.40;;
16478;SDS011;8350;52.316;10.530;2023-07-29T03:45:03;2.38;;;2.05;;
16478;SDS011;8350;52.316;10.530;2023-07-29T03:47:30;2.30;;;2.20;;
16478;SDS011;8350;52.316;10.530;2023-07-29T03:49:57;2.10;;;2.00;;
16478;SDS011;8350;52.316;10.530;2023-07-29T03:52:24;2.13;;;1.92;;
16478;SDS011;8350;52.316;10.530;2023-07-29T03:54:53;3.70;;;2.10;;
16478;SDS011;8350;52.316;10.530;2023-07-29T03:57:19;2.10;;;1.90;;
16478;SDS011;8350;52.316;10.530;2023-07-29T03:59:46;2.25;;;2.05;;
16478;SDS011;8350;52.316;10.530;2023-07-29T04:02:13;2.30;;;2.10;;
16478;SDS011;8350;52.316;10.530;2023-07-29T04:04:41;4.57;;;2.10;;
16478;SDS011;8350;52.316;10.530;2023-07-29T04:07:09;2.30;;;2.03;;
16478;SDS011;8350;52.316;10.530;2023-07-29T04:09:36;2.25;;;2.05;;
16478;SDS011;8350;52.316;10.530;2023-07-29T04:12:19;2.33;;;2.03;;
16478;SDS011;8350;52.316;10.530;2023-07-29T04:14:46;3.75;;;1.95;;
16478;SDS011;8350;52.316;10.530;2023-07-29T04:17:13;2.08;;;1.98;;
16478;SDS011;8350;52.316;10.530;2023-07-29T04:19:40;2.80;;;1.92;;
16478;SDS011;8350;52.316;10.530;2023-07-29T04:22:08;1.88;;;1.77;;
16478;SDS011;8350;52.316;10.530;2023-07-29T04:24:35;2.35;;;2.17;;
16478;SDS011;8350;52.316;10.530;2023-07-29T04:27:03;2.53;;;1.90;;
16478;SDS011;8350;52.316;10.530;2023-07-29T04:29:32;2.15;;;2.05;;
16478;SDS011;8350;52.316;10.530;2023-07-29T04:32:02;2.47;;;2.28;;
16478;SDS011;8350;52.316;10.530;2023-07-29T04:34:30;2.65;;;2.13;;
16478;SDS011;8350;52.316;10.530;2023-07-29T04:36:57;1.80;;;1.70;;
16478;SDS011;8350;52.316;10.530;2023-07-29T04:39:24;2.53;;;1.95;;
16478;SDS011;8350;52.316;10.530;2023-07-29T04:41:51;3.03;;;2.30;;
16478;SDS011;8350;52.316;10.530;2023-07-29T04:44:18;2.00;;;1.90;;
16478;SDS011;8350;52.316;10.530;2023-07-29T04:46:49;2.08;;;1.88;;
16478;SDS011;8350;52.316;10.530;2023-07-29T04:49:16;2.50;;;2.30;;
16478;SDS011;8350;52.316;10.530;2023-07-29T04:51:43;2.08;;;1.88;;
16478;SDS011;8350;52.316;10.530;2023-07-29T04:54:10;1.90;;;1.80;;
16478;SDS011;8350;52.316;10.530;2023-07-29T04:56:40;2.20;;;2.00;;
16478;SDS011;8350;52.316;10.530;2023-07-29T04:59:07;1.70;;;1.60;;
16478;SDS011;8350;52.316;10.530;2023-07-29T05:01:34;2.38;;;1.70;;
16478;SDS011;8350;52.316;10.530;2023-07-29T05:04:02;2.00;;;1.63;;
16478;SDS011;8350;52.316;10.530;2023-07-29T05:06:29;2.90;;;1.60;;
16478;SDS011;8350;52.316;10.530;2023-07-29T05:08:57;1.63;;;1.52;;
16478;SDS011;8350;52.316;10.530;2023-07-29T05:11:24;2.30;;;1.90;;
16478;SDS011;8350;52.316;10.530;2023-07-29T05:13:51;3.70;;;1.70;;
16478;SDS011;8350;52.316;10.530;2023-07-29T05:16:18;2.00;;;1.90;;
16478;SDS011;8350;52.316;10.530;2023-07-29T05:21:17;1.85;;;1.50;;
16478;SDS011;8350;52.316;10.530;2023-07-29T05:23:44;1.75;;;1.65;;
16478;SDS011;8350;52.316;10.530;2023-07-29T05:26:11;2.08;;;1.70;;
16478;SDS011;8350;52.316;10.530;2023-07-29T05:28:38;2.35;;;2.15;;
16478;SDS011;8350;52.316;10.530;2023-07-29T05:31:05;3.83;;;1.83;;
16478;SDS011;8350;52.316;10.530;2023-07-29T05:33:32;3.70;;;2.35;;
16478;SDS011;8350;52.316;10.530;2023-07-29T05:36:02;2.47;;;1.90;;
16478;SDS011;8350;52.316;10.530;2023-07-29T05:38:31;3.00;;;1.88;;
16478;SDS011;8350;52.316;10.530;2023-07-29T05:40:58;2.53;;;2.33;;
16478;SDS011;8350;52.316;10.530;2023-07-29T05:43:26;3.30;;;2.25;;
16478;SDS011;8350;52.316;10.530;2023-07-29T05:45:53;2.35;;;2.15;;
16478;SDS011;8350;52.316;10.530;2023-07-29T05:48:22;2.50;;;2.30;;
16478;SDS011;8350;52.316;10.530;2023-07-29T05:50:49;2.50;;;2.30;;
16478;SDS011;8350;52.316;10.530;2023-07-29T05:53:16;5.32;;;2.20;;
16478;SDS011;8350;52.316;10.530;2023-07-29T05:55:44;3.38;;;2.00;;
16478;SDS011;8350;52.316;10.530;2023-07-29T05:58:13;5.82;;;2.70;;
16478;SDS011;8350;52.316;10.530;2023-07-29T06:00:54;2.10;;;1.90;;
16478;SDS011;8350;52.316;10.530;2023-07-29T06:06:11;5.47;;;2.30;;
16478;SDS011;8350;52.316;10.530;2023-07-29T06:08:38;3.22;;;2.22;;
16478;SDS011;8350;52.316;10.530;2023-07-29T06:11:07;2.08;;;1.80;;
16478;SDS011;8350;52.316;10.530;2023-07-29T06:13:34;3.15;;;2.33;;
16478;SDS011;8350;52.316;10.530;2023-07-29T06:16:02;5.00;;;2.30;;
16478;SDS011;8350;52.316;10.530;2023-07-29T06:18:30;3.85;;;2.50;;
16478;SDS011;8350;52.316;10.530;2023-07-29T06:20:57;2.90;;;2.35;;
16478;SDS011;8350;52.316;10.530;2023-07-29T06:23:24;3.75;;;2.38;;
16478;SDS011;8350;52.316;10.530;2023-07-29T06:25:51;4.28;;;2.63;;
16478;SDS011;8350;52.316;10.530;2023-07-29T06:28:20;3.20;;;2.90;;
16478;SDS011;8350;52.316;10.530;2023-07-29T06:30:47;6.90;;;3.38;;
16478;SDS011;8350;52.316;10.530;2023-07-29T06:33:13;2.97;;;2.63;;
16478;SDS011;8350;52.316;10.530;2023-07-29T06:35:43;5.57;;;3.40;;
16478;SDS011;8350;52.316;10.530;2023-07-29T06:38:10;9.30;;;3.63;;
16478;SDS011;8350;52.316;10.530;2023-07-29T06:40:37;10.80;;;3.15;;
16478;SDS011;8350;52.316;10.530;2023-07-29T06:43:04;2.75;;;2.50;;
16478;SDS011;8350;52.316;10.530;2023-07-29T06:45:32;4.32;;;3.15;;
16478;SDS011;8350;52.316;10.530;2023-07-29T06:47:59;3.42;;;3.13;;
16478;SDS011;8350;52.316;10.530;2023-07-29T06:50:26;4.10;;;3.67;;
16478;SDS011;8350;52.316;10.530;2023-07-29T06:52:53;3.72;;;3.20;;
16478;SDS011;8350;52.316;10.530;2023-07-29T06:55:20;5.00;;;3.33;;
16478;SDS011;8350;52.316;10.530;2023-07-29T06:57:47;5.20;;;3.15;;
16478;SDS011;8350;52.316;10.530;2023-07-29T07:00:14;2.90;;;2.47;;
16478;SDS011;8350;52.316;10.530;2023-07-29T07:02:43;3.10;;;2.80;;
16478;SDS011;8350;52.316;10.530;2023-07-29T07:05:10;3.20;;;2.90;;
16478;SDS011;8350;52.316;10.530;2023-07-29T07:07:37;3.83;;;2.60;;
16478;SDS011;8350;52.316;10.530;2023-07-29T07:10:04;3.15;;;2.92;;
16478;SDS011;8350;52.316;10.530;2023-07-29T07:12:32;4.03;;;3.50;;
16478;SDS011;8350;52.316;10.530;2023-07-29T07:15:02;4.63;;;3.17;;
16478;SDS011;8350;52.316;10.530;2023-07-29T07:17:31;3.70;;;2.72;;
16478;SDS011;8350;52.316;10.530;2023-07-29T07:19:59;3.42;;;3.13;;
16478;SDS011;8350;52.316;10.530;2023-07-29T07:22:26;3.05;;;2.70;;
16478;SDS011;8350;52.316;10.530;2023-07-29T07:24:54;3.65;;;2.65;;
16478;SDS011;8350;52.316;10.530;2023-07-29T07:27:20;3.10;;;2.60;;
16478;SDS011;8350;52.316;10.530;2023-07-29T07:29:48;3.30;;;3.00;;
16478;SDS011;8350;52.316;10.530;2023-07-29T07:32:17;3.25;;;2.53;;
16478;SDS011;8350;52.316;10.530;2023-07-29T07:34:46;3.20;;;2.88;;
16478;SDS011;8350;52.316;10.530;2023-07-29T07:37:14;3.15;;;2.40;;
16478;SDS011;8350;52.316;10.530;2023-07-29T07:39:41;3.50;;;3.05;;
16478;SDS011;8350;52.316;10.530;2023-07-29T07:42:10;3.83;;;2.25;;
16478;SDS011;8350;52.316;10.530;2023-07-29T07:44:37;2.83;;;2.08;;
16478;SDS011;8350;52.316;10.530;2023-07-29T07:47:04;4.10;;;2.92;;
16478;SDS011;8350;52.316;10.530;2023-07-29T07:49:31;2.08;;;1.88;;
16478;SDS011;8350;52.316;10.530;2023-07-29T07:51:58;2.55;;;2.35;;
16478;SDS011;8350;52.316;10.530;2023-07-29T07:54:27;2.13;;;1.90;;
16478;SDS011;8350;52.316;10.530;2023-07-29T07:56:57;2.30;;;1.77;;
16478;SDS011;8350;52.316;10.530;2023-07-29T07:59:25;2.20;;;1.95;;
16478;SDS011;8350;52.316;10.530;2023-07-29T08:02:06;2.40;;;2.00;;
16478;SDS011;8350;52.316;10.530;2023-07-29T08:04:38;3.78;;;2.10;;
16478;SDS011;8350;52.316;10.530;2023-07-29T08:07:05;1.65;;;1.55;;
16478;SDS011;8350;52.316;10.530;2023-07-29T08:09:34;1.73;;;1.63;;
16478;SDS011;8350;52.316;10.530;2023-07-29T08:12:01;2.42;;;1.95;;
16478;SDS011;8350;52.316;10.530;2023-07-29T08:14:31;2.20;;;1.60;;
16478;SDS011;8350;52.316;10.530;2023-07-29T08:16:58;2.22;;;1.70;;
16478;SDS011;8350;52.316;10.530;2023-07-29T08:19:26;1.70;;;1.60;;
16478;SDS011;8350;52.316;10.530;2023-07-29T08:21:56;2.22;;;2.03;;
16478;SDS011;8350;52.316;10.530;2023-07-29T08:24:45;2.30;;;1.42;;
16478;SDS011;8350;52.316;10.530;2023-07-29T08:27:12;1.73;;;1.63;;
16478;SDS011;8350;52.316;10.530;2023-07-29T08:29:43;2.03;;;1.75;;
16478;SDS011;8350;52.316;10.530;2023-07-29T08:32:10;2.28;;;1.90;;
16478;SDS011;8350;52.316;10.530;2023-07-29T08:34:37;3.45;;;1.40;;
16478;SDS011;8350;52.316;10.530;2023-07-29T08:37:04;2.88;;;1.70;;
16478;SDS011;8350;52.316;10.530;2023-07-29T08:39:31;2.67;;;1.65;;
16478;SDS011;8350;52.316;10.530;2023-07-29T08:42:04;1.90;;;1.70;;
16478;SDS011;8350;52.316;10.530;2023-07-29T08:44:44;2.60;;;1.45;;
16478;SDS011;8350;52.316;10.530;2023-07-29T08:47:15;1.60;;;1.50;;
16478;SDS011;8350;52.316;10.530;2023-07-29T08:49:42;1.98;;;1.75;;
16478;SDS011;8350;52.316;10.530;2023-07-29T08:52:14;1.52;;;1.42;;
16478;SDS011;8350;52.316;10.530;2023-07-29T08:54:41;3.25;;;1.58;;
16478;SDS011;8350;52.316;10.530;2023-07-29T08:57:10;2.28;;;1.40;;
16478;SDS011;8350;52.316;10.530;2023-07-29T08:59:37;2.67;;;1.52;;
16478;SDS011;8350;52.316;10.530;2023-07-29T09:02:05;3.38;;;1.30;;
16478;SDS011;8350;52.316;10.530;2023-07-29T09:04:33;1.27;;;1.17;;
16478;SDS011;8350;52.316;10.530;2023-07-29T09:07:00;1.45;;;0.88;;
16478;SDS011;8350;52.316;10.530;2023-07-29T09:09:27;1.77;;;0.88;;
16478;SDS011;8350;52.316;10.530;2023-07-29T09:11:54;1.75;;;1.00;;
16478;SDS011;8350;52.316;10.530;2023-07-29T09:14:26;1.45;;;0.95;;
16478;SDS011;8350;52.316;10.530;2023-07-29T09:16:53;0.95;;;0.70;;
16478;SDS011;8350;52.316;10.530;2023-07-29T09:19:24;1.00;;;0.90;;
16478;SDS011;8350;52.316;10.530;2023-07-29T09:21:52;2.00;;;0.90;;
16478;SDS011;8350;52.316;10.530;2023-07-29T09:24:21;3.53;;;1.20;;
16478;SDS011;8350;52.316;10.530;2023-07-29T09:26:51;1.15;;;0.80;;
16478;SDS011;8350;52.316;10.530;2023-07-29T09:29:21;1.42;;;0.82;;
16478;SDS011;8350;52.316;10.530;2023-07-29T09:31:53;0.73;;;0.73;;
16478;SDS011;8350;52.316;10.530;2023-07-29T09:34:22;1.88;;;0.90;;
16478;SDS011;8350;52.316;10.530;2023-07-29T09:36:50;1.80;;;1.02;;
16478;SDS011;8350;52.316;10.530;2023-07-29T09:39:17;1.10;;;1.00;;
16478;SDS011;8350;52.316;10.530;2023-07-29T09:41:47;1.25;;;1.00;;
16478;SDS011;8350;52.316;10.530;2023-07-29T09:44:15;1.83;;;1.48;;
16478;SDS011;8350;52.316;10.530;2023-07-29T09:46:45;1.20;;;1.10;;
16478;SDS011;8350;52.316;10.530;2023-07-29T09:49:12;1.77;;;1.00;;
16478;SDS011;8350;52.316;10.530;2023-07-29T09:51:39;1.67;;;0.98;;
16478;SDS011;8350;52.316;10.530;2023-07-29T09:54:07;0.83;;;0.80;;
16478;SDS011;8350;52.316;10.530;2023-07-29T09:56:35;2.30;;;0.90;;
16478;SDS011;8350;52.316;10.530;2023-07-29T09:59:07;0.80;;;0.80;;
16478;SDS011;8350;52.316;10.530;2023-07-29T10:01:34;0.95;;;0.95;;
16478;SDS011;8350;52.316;10.530;2023-07-29T10:04:03;3.53;;;1.10;;
16478;SDS011;8350;52.316;10.530;2023-07-29T10:06:32;1.30;;;1.20;;
16478;SDS011;8350;52.316;10.530;2023-07-29T10:09:00;1.65;;;1.40;;
16478;SDS011;8350;52.316;10.530;2023-07-29T10:11:27;1.45;;;1.05;;
16478;SDS011;8350;52.316;10.530;2023-07-29T10:13:56;2.17;;;1.40;;
16478;SDS011;8350;52.316;10.530;2023-07-29T10:16:24;1.50;;;1.20;;
16478;SDS011;8350;52.316;10.530;2023-07-29T10:18:51;2.08;;;1.20;;
16478;SDS011;8350;52.316;10.530;2023-07-29T10:21:24;1.25;;;1.15;;
16478;SDS011;8350;52.316;10.530;2023-07-29T10:23:52;2.15;;;1.27;;
16478;SDS011;8350;52.316;10.530;2023-07-29T10:26:22;1.00;;;0.90;;
16478;SDS011;8350;52.316;10.530;2023-07-29T10:28:51;2.47;;;1.00;;
16478;SDS011;8350;52.316;10.530;2023-07-29T10:31:20;1.40;;;1.30;;
16478;SDS011;8350;52.316;10.530;2023-07-29T10:33:51;1.42;;;1.20;;
16478;SDS011;8350;52.316;10.530;2023-07-29T10:36:19;2.10;;;1.25;;
16478;SDS011;8350;52.316;10.530;2023-07-29T10:38:48;1.20;;;1.10;;
16478;SDS011;8350;52.316;10.530;2023-07-29T10:41:16;2.60;;;1.80;;
16478;SDS011;8350;52.316;10.530;2023-07-29T10:43:42;1.65;;;1.55;;
16478;SDS011;8350;52.316;10.530;2023-07-29T10:46:15;1.90;;;1.40;;
16478;SDS011;8350;52.316;10.530;2023-07-29T10:48:44;1.83;;;1.35;;
16478;SDS011;8350;52.316;10.530;2023-07-29T10:51:22;2.20;;;1.67;;
16478;SDS011;8350;52.316;10.530;2023-07-29T10:53:57;2.05;;;1.90;;
16478;SDS011;8350;52.316;10.530;2023-07-29T10:56:26;2.33;;;1.73;;
16478;SDS011;8350;52.316;10.530;2023-07-29T10:58:55;2.53;;;2.33;;
16478;SDS011;8350;52.316;10.530;2023-07-29T11:01:26;2.75;;;2.00;;
16478;SDS011;8350;52.316;10.530;2023-07-29T11:04:01;1.90;;;1.80;;
16478;SDS011;8350;52.316;10.530;2023-07-29T11:09:57;1.48;;;1.38;;
16478;SDS011;8350;52.316;10.530;2023-07-29T11:12:35;3.67;;;2.63;;
16478;SDS011;8350;52.316;10.530;2023-07-29T11:15:17;2.33;;;2.22;;
16478;SDS011;8350;52.316;10.530;2023-07-29T11:17:48;2.65;;;2.45;;
16478;SDS011;8350;52.316;10.530;2023-07-29T11:20:18;2.75;;;2.55;;
16478;SDS011;8350;52.316;10.530;2023-07-29T11:22:47;3.08;;;2.80;;
16478;SDS011;8350;52.316;10.530;2023-07-29T11:25:16;3.90;;;3.60;;
16478;SDS011;8350;52.316;10.530;2023-07-29T11:27:44;4.47;;;4.07;;
16478;SDS011;8350;52.316;10.530;2023-07-29T11:30:12;5.22;;;4.82;;
16478;SDS011;8350;52.316;10.530;2023-07-29T11:32:41;6.32;;;5.85;;
16478;SDS011;8350;52.316;10.530;2023-07-29T11:35:09;6.28;;;5.85;;
16478;SDS011;8350;52.316;10.530;2023-07-29T11:37:38;7.15;;;6.65;;
16478;SDS011;8350;52.316;10.530;2023-07-29T11:40:08;7.65;;;7.05;;
16478;SDS011;8350;52.316;10.530;2023-07-29T11:42:37;7.25;;;6.65;;
16478;SDS011;8350;52.316;10.530;2023-07-29T11:45:05;6.65;;;6.15;;
16478;SDS011;8350;52.316;10.530;2023-07-29T11:47:33;6.35;;;5.85;;
16478;SDS011;8350;52.316;10.530;2023-07-29T11:50:02;6.28;;;5.75;;
16478;SDS011;8350;52.316;10.530;2023-07-29T11:52:31;6.03;;;5.40;;
16478;SDS011;8350;52.316;10.530;2023-07-29T11:55:00;6.20;;;5.70;;
16478;SDS011;8350;52.316;10.530;2023-07-29T11:57:28;6.03;;;5.63;;
16478;SDS011;8350;52.316;10.530;2023-07-29T11:59:57;5.80;;;5.40;;
16478;SDS011;8350;52.316;10.530;2023-07-29T12:02:24;6.03;;;5.40;;
16478;SDS011;8350;52.316;10.530;2023-07-29T12:04:51;6.28;;;5.68;;
16478;SDS011;8350;52.316;10.530;2023-07-29T12:07:19;5.85;;;5.32;;
16478;SDS011;8350;52.316;10.530;2023-07-29T12:09:47;5.10;;;4.80;;
16478;SDS011;8350;52.316;10.530;2023-07-29T12:12:15;6.22;;;5.68;;
16478;SDS011;8350;52.316;10.530;2023-07-29T12:14:43;5.88;;;5.47;;
16478;SDS011;8350;52.316;10.530;2023-07-29T12:17:13;5.72;;;5.30;;
16478;SDS011;8350;52.316;10.530;2023-07-29T12:19:40;5.68;;;5.28;;
16478;SDS011;8350;52.316;10.530;2023-07-29T12:22:08;5.85;;;5.35;;
16478;SDS011;8350;52.316;10.530;2023-07-29T12:24:37;5.85;;;5.40;;
16478;SDS011;8350;52.316;10.530;2023-07-29T12:27:05;6.30;;;4.95;;
16478;SDS011;8350;52.316;10.530;2023-07-29T12:29:39;5.00;;;4.60;;
16478;SDS011;8350;52.316;10.530;2023-07-29T12:32:08;4.25;;;3.75;;
16478;SDS011;8350;52.316;10.530;2023-07-29T12:34:38;4.10;;;3.72;;
16478;SDS011;8350;52.316;10.530;2023-07-29T12:37:05;4.18;;;3.88;;
16478;SDS011;8350;52.316;10.530;2023-07-29T12:39:33;3.83;;;3.53;;
16478;SDS011;8350;52.316;10.530;2023-07-29T12:42:01;2.85;;;2.65;;
16478;SDS011;8350;52.316;10.530;2023-07-29T12:44:30;3.13;;;2.40;;
16478;SDS011;8350;52.316;10.530;2023-07-29T12:46:58;2.97;;;2.70;;
16478;SDS011;8350;52.316;10.530;2023-07-29T12:49:26;3.22;;;3.03;;
16478;SDS011;8350;52.316;10.530;2023-07-29T12:51:56;3.13;;;2.92;;
16478;SDS011;8350;52.316;10.530;2023-07-29T12:54:24;3.45;;;3.15;;
16478;SDS011;8350;52.316;10.530;2023-07-29T12:56:51;2.90;;;2.70;;
16478;SDS011;8350;52.316;10.530;2023-07-29T12:59:18;2.70;;;2.50;;
16478;SDS011;8350;52.316;10.530;2023-07-29T13:01:45;2.25;;;2.05;;
16478;SDS011;8350;52.316;10.530;2023-07-29T13:04:13;3.40;;;2.05;;
16478;SDS011;8350;52.316;10.530;2023-07-29T13:06:40;1.65;;;1.55;;
16478;SDS011;8350;52.316;10.530;2023-07-29T13:09:08;1.70;;;1.60;;
16478;SDS011;8350;52.316;10.530;2023-07-29T13:11:35;3.85;;;1.50;;
16478;SDS011;8350;52.316;10.530;2023-07-29T13:14:02;1.85;;;1.25;;
16478;SDS011;8350;52.316;10.530;2023-07-29T13:16:29;1.38;;;1.15;;
16478;SDS011;8350;52.316;10.530;2023-07-29T13:18:56;1.73;;;1.20;;
16478;SDS011;8350;52.316;10.530;2023-07-29T13:21:23;1.55;;;1.13;;
16478;SDS011;8350;52.316;10.530;2023-07-29T13:23:53;0.80;;;0.80;;
16478;SDS011;8350;52.316;10.530;2023-07-29T13:26:22;3.00;;;1.10;;
16478;SDS011;8350;52.316;10.530;2023-07-29T13:28:49;1.20;;;1.05;;
16478;SDS011;8350;52.316;10.530;2023-07-29T13:31:16;0.60;;;0.60;;
16478;SDS011;8350;52.316;10.530;2023-07-29T13:33:42;0.77;;;0.77;;
16478;SDS011;8350;52.316;10.530;2023-07-29T13:36:09;2.45;;;0.70;;
16478;SDS011;8350;52.316;10.530;2023-07-29T13:38:37;0.85;;;0.60;;
16478;SDS011;8350;52.316;10.530;2023-07-29T13:41:04;2.08;;;1.13;;
16478;SDS011;8350;52.316;10.530;2023-07-29T13:43:32;1.80;;;1.23;;
16478;SDS011;8350;52.316;10.530;2023-07-29T13:45:59;4.13;;;1.33;;
16478;SDS011;8350;52.316;10.530;2023-07-29T13:48:26;2.03;;;0.93;;
16478;SDS011;8350;52.316;10.530;2023-07-29T13:50:53;1.02;;;0.93;;
16478;SDS011;8350;52.316;10.530;2023-07-29T13:53:20;1.13;;;0.90;;
16478;SDS011;8350;52.316;10.530;2023-07-29T13:55:47;1.48;;;0.80;;
16478;SDS011;8350;52.316;10.530;2023-07-29T13:58:14;1.00;;;0.90;;
16478;SDS011;8350;52.316;10.530;2023-07-29T14:00:42;1.02;;;0.80;;
16478;SDS011;8350;52.316;10.530;2023-07-29T14:03:09;1.45;;;0.90;;
16478;SDS011;8350;52.316;10.530;2023-07-29T14:05:36;1.00;;;0.90;;
16478;SDS011;8350;52.316;10.530;2023-07-29T14:08:03;0.80;;;0.73;;
16478;SDS011;8350;52.316;10.530;2023-07-29T14:10:35;1.05;;;0.70;;
16478;SDS011;8350;52.316;10.530;2023-07-29T14:13:02;1.30;;;0.88;;
16478;SDS011;8350;52.316;10.530;2023-07-29T14:15:29;1.00;;;0.80;;
16478;SDS011;8350;52.316;10.530;2023-07-29T14:17:58;0.90;;;0.90;;
16478;SDS011;8350;52.316;10.530;2023-07-29T14:20:27;0.75;;;0.75;;
16478;SDS011;8350;52.316;10.530;2023-07-29T14:22:54;0.60;;;0.60;;
16478;SDS011;8350;52.316;10.530;2023-07-29T14:25:22;2.00;;;0.90;;
16478;SDS011;8350;52.316;10.530;2023-07-29T14:27:48;2.85;;;0.80;;
16478;SDS011;8350;52.316;10.530;2023-07-29T14:30:15;1.17;;;0.90;;
16478;SDS011;8350;52.316;10.530;2023-07-29T14:32:42;0.60;;;0.60;;
16478;SDS011;8350;52.316;10.530;2023-07-29T14:35:11;1.02;;;0.90;;
16478;SDS011;8350;52.316;10.530;2023-07-29T14:37:38;1.00;;;0.70;;
16478;SDS011;8350;52.316;10.530;2023-07-29T14:40:06;1.05;;;0.75;;
16478;SDS011;8350;52.316;10.530;2023-07-29T14:42:33;1.00;;;0.80;;
16478;SDS011;8350;52.316;10.530;2023-07-29T14:45:00;1.08;;;0.75;;
16478;SDS011;8350;52.316;10.530;2023-07-29T14:47:27;1.42;;;0.80;;
16478;SDS011;8350;52.316;10.530;2023-07-29T14:49:59;2.65;;;0.70;;
16478;SDS011;8350;52.316;10.530;2023-07-29T14:52:28;0.80;;;0.70;;
16478;SDS011;8350;52.316;10.530;2023-07-29T14:55:04;1.98;;;0.80;;
16478;SDS011;8350;52.316;10.530;2023-07-29T14:57:45;0.98;;;0.60;;
16478;SDS011;8350;52.316;10.530;2023-07-29T15:00:12;2.55;;;0.70;;
16478;SDS011;8350;52.316;10.530;2023-07-29T15:02:40;0.75;;;0.73;;
16478;SDS011;8350;52.316;10.530;2023-07-29T15:05:07;0.85;;;0.85;;